createdAt,value
2018-05-26T00:00:52.036Z,101157
2018-05-26T00:03:21.311Z,101145
2018-05-26T00:05:50.120Z,101151
2018-05-26T00:08:20.240Z,101148
2018-05-26T00:10:49.053Z,101149
2018-05-26T00:13:17.355Z,101144
2018-05-26T00:15:46.463Z,101147
2018-05-26T00:18:14.565Z,101143
2018-05-26T00:20:42.808Z,101141
2018-05-26T00:23:10.991Z,101135
2018-05-26T00:25:39.958Z,101142
2018-05-26T00:28:07.980Z,101153
2018-05-26T00:30:36.918Z,101153
2018-05-26T00:33:05.344Z,101142
2018-05-26T00:35:33.640Z,101144
2018-05-26T00:38:01.733Z,101145
2018-05-26T00:40:30.649Z,101155
2018-05-26T00:42:58.841Z,101149
2018-05-26T00:45:27.019Z,101148
2018-05-26T00:47:55.279Z,101152
2018-05-26T00:50:23.621Z,101151
2018-05-26T00:52:52.726Z,101158
2018-05-26T00:55:20.962Z,101157
2018-05-26T00:57:49.157Z,101155
2018-05-26T01:00:17.225Z,101167
2018-05-26T01:02:45.365Z,101161
2018-05-26T01:05:13.504Z,101160
2018-05-26T01:07:41.590Z,101131
2018-05-26T01:10:09.723Z,101147
2018-05-26T01:12:38.476Z,101160
2018-05-26T01:15:07.536Z,101162
2018-05-26T01:17:35.791Z,101164
2018-05-26T01:20:03.978Z,101155
2018-05-26T01:22:32.068Z,101159
2018-05-26T01:25:00.232Z,101154
2018-05-26T01:27:28.329Z,101156
2018-05-26T01:29:56.665Z,101151
2018-05-26T01:32:24.956Z,101153
2018-05-26T01:34:53.753Z,101152
2018-05-26T01:37:22.259Z,101152
2018-05-26T01:39:51.107Z,101154
2018-05-26T01:42:22.019Z,101153
2018-05-26T01:44:50.209Z,101156
2018-05-26T01:47:19.394Z,101152
2018-05-26T01:49:47.560Z,101149
2018-05-26T01:52:15.656Z,101150
2018-05-26T01:54:46.116Z,101140
2018-05-26T01:57:14.417Z,101144
2018-05-26T01:59:43.187Z,101132
2018-05-26T02:02:11.585Z,101137
2018-05-26T02:04:39.675Z,101139
2018-05-26T02:07:08.682Z,101139
2018-05-26T02:09:36.892Z,101137
2018-05-26T02:12:05.127Z,101132
2018-05-26T02:14:33.875Z,101146
2018-05-26T02:17:02.113Z,101143
2018-05-26T02:19:30.981Z,101149
2018-05-26T02:21:59.716Z,101131
2018-05-26T02:24:32.108Z,101129
2018-05-26T02:27:00.892Z,101136
2018-05-26T02:29:29.202Z,101128
2018-05-26T02:31:57.276Z,101128
2018-05-26T02:34:25.612Z,101135
2018-05-26T02:36:53.734Z,101134
2018-05-26T02:39:21.839Z,101128
2018-05-26T02:41:50.222Z,101125
2018-05-26T02:44:18.455Z,101141
2018-05-26T02:46:46.668Z,101136
2018-05-26T02:49:16.396Z,101135
2018-05-26T02:51:44.713Z,101141
2018-05-26T02:54:13.354Z,101141
2018-05-26T02:56:41.641Z,101140
2018-05-26T02:59:10.660Z,101141
2018-05-26T03:01:39.675Z,101138
2018-05-26T03:04:07.795Z,101131
2018-05-26T03:06:41.412Z,101134
2018-05-26T03:09:18.395Z,101127
2018-05-26T03:11:52.907Z,101131
2018-05-26T03:14:27.633Z,101133
2018-05-26T03:16:56.044Z,101126
2018-05-26T03:19:24.125Z,101120
2018-05-26T03:21:52.199Z,101127
2018-05-26T03:24:20.556Z,101136
2018-05-26T03:26:48.911Z,101132
2018-05-26T03:29:17.012Z,101135
2018-05-26T03:31:45.257Z,101143
2018-05-26T03:34:14.045Z,101149
2018-05-26T03:36:42.393Z,101150
2018-05-26T03:39:11.205Z,101140
2018-05-26T03:41:39.500Z,101144
2018-05-26T03:44:07.606Z,101142
2018-05-26T03:46:35.926Z,101151
2018-05-26T03:49:04.164Z,101143
2018-05-26T03:51:32.400Z,101157
2018-05-26T03:54:00.751Z,101155
2018-05-26T04:00:00.724Z,101146
2018-05-26T04:02:28.866Z,101150
2018-05-26T04:04:57.107Z,101151
2018-05-26T04:07:26.329Z,101162
2018-05-26T04:09:55.352Z,101157
2018-05-26T04:12:25.792Z,101168
2018-05-26T04:14:54.032Z,101163
2018-05-26T04:17:22.383Z,101169
2018-05-26T04:19:50.935Z,101173
2018-05-26T04:22:22.848Z,101169
2018-05-26T04:24:54.531Z,101168
2018-05-26T04:27:22.754Z,101170
2018-05-26T04:29:50.965Z,101179
2018-05-26T04:32:19.072Z,101182
2018-05-26T04:34:47.159Z,101181
2018-05-26T04:37:15.496Z,101186
2018-05-26T04:39:43.928Z,101186
2018-05-26T04:42:15.577Z,101192
2018-05-26T04:44:43.800Z,101194
2018-05-26T04:47:13.734Z,101182
2018-05-26T04:49:42.571Z,101183
2018-05-26T04:52:10.677Z,101183
2018-05-26T04:54:39.004Z,101191
2018-05-26T04:57:07.859Z,101191
2018-05-26T04:59:35.996Z,101195
2018-05-26T05:02:04.760Z,101195
2018-05-26T05:04:32.899Z,101209
2018-05-26T05:07:01.352Z,101197
2018-05-26T05:09:29.575Z,101196
2018-05-26T05:11:58.164Z,101197
2018-05-26T05:14:26.453Z,101202
2018-05-26T05:16:54.817Z,101207
2018-05-26T05:19:25.953Z,101209
2018-05-26T05:21:54.129Z,101206
2018-05-26T05:24:23.512Z,101209
2018-05-26T05:26:52.402Z,101215
2018-05-26T05:29:20.481Z,101219
2018-05-26T05:31:49.665Z,101219
2018-05-26T05:34:17.976Z,101219
2018-05-26T05:36:46.335Z,101222
2018-05-26T05:39:14.442Z,101224
2018-05-26T05:41:42.789Z,101229
2018-05-26T05:44:11.023Z,101229
2018-05-26T05:46:39.925Z,101233
2018-05-26T05:49:08.306Z,101227
2018-05-26T05:51:37.122Z,101231
2018-05-26T05:54:05.395Z,101238
2018-05-26T05:56:35.535Z,101243
2018-05-26T05:59:03.593Z,101235
2018-05-26T06:01:32.527Z,101237
2018-05-26T06:04:00.621Z,101236
2018-05-26T06:06:29.483Z,101244
2018-05-26T06:08:58.736Z,101240
2018-05-26T06:11:27.637Z,101239
2018-05-26T06:13:55.874Z,101239
2018-05-26T06:16:24.229Z,101245
2018-05-26T06:18:52.753Z,101253
2018-05-26T06:21:21.875Z,101249
2018-05-26T06:23:50.272Z,101255
2018-05-26T06:26:18.574Z,101250
2018-05-26T06:28:46.865Z,101249
2018-05-26T06:31:15.354Z,101253
2018-05-26T06:33:43.653Z,101259
2018-05-26T06:36:11.769Z,101264
2018-05-26T06:38:40.081Z,101261
2018-05-26T06:41:08.925Z,101272
2018-05-26T06:43:37.017Z,101270
2018-05-26T06:46:05.453Z,101260
2018-05-26T06:48:33.544Z,101261
2018-05-26T06:51:02.423Z,101254
2018-05-26T06:53:31.083Z,101254
2018-05-26T06:55:59.170Z,101254
2018-05-26T06:58:27.295Z,101255
2018-05-26T07:00:56.040Z,101252
2018-05-26T07:03:24.292Z,101256
2018-05-26T07:05:53.301Z,101250
2018-05-26T07:08:21.503Z,101252
2018-05-26T07:10:49.599Z,101251
2018-05-26T07:13:17.705Z,101251
2018-05-26T07:15:46.080Z,101255
2018-05-26T07:18:14.161Z,101256
2018-05-26T07:20:42.286Z,101250
2018-05-26T07:23:10.388Z,101249
2018-05-26T07:25:38.488Z,101249
2018-05-26T07:28:06.584Z,101245
2018-05-26T07:30:35.628Z,101249
2018-05-26T07:33:03.953Z,101242
2018-05-26T07:35:32.540Z,101247
2018-05-26T07:38:03.840Z,101243
2018-05-26T07:40:32.928Z,101256
2018-05-26T07:43:02.782Z,101257
2018-05-26T07:45:31.668Z,101254
2018-05-26T07:47:59.760Z,101251
2018-05-26T07:50:28.137Z,101251
2018-05-26T07:52:56.388Z,101255
2018-05-26T07:55:24.691Z,101256
2018-05-26T07:57:53.017Z,101248
2018-05-26T08:00:21.913Z,101256
2018-05-26T08:02:50.962Z,101254
2018-05-26T08:05:19.196Z,101252
2018-05-26T08:07:48.064Z,101256
2018-05-26T08:10:16.167Z,101246
2018-05-26T08:12:44.451Z,101256
2018-05-26T08:15:13.436Z,101260
2018-05-26T08:17:41.519Z,101262
2018-05-26T08:20:09.649Z,101264
2018-05-26T08:22:38.650Z,101265
2018-05-26T08:25:07.388Z,101267
2018-05-26T08:27:35.679Z,101274
2018-05-26T08:30:04.124Z,101270
2018-05-26T08:32:32.373Z,101271
2018-05-26T08:35:01.231Z,101271
2018-05-26T08:37:29.418Z,101272
2018-05-26T08:39:58.803Z,101264
2018-05-26T08:42:27.672Z,101271
2018-05-26T08:44:55.754Z,101264
2018-05-26T08:47:24.317Z,101276
2018-05-26T08:49:52.770Z,101269
2018-05-26T08:52:21.643Z,101280
2018-05-26T08:54:50.899Z,101276
2018-05-26T08:57:19.212Z,101278
2018-05-26T08:59:47.527Z,101283
2018-05-26T09:02:15.969Z,101276
2018-05-26T09:04:44.035Z,101280
2018-05-26T09:07:12.193Z,101288
2018-05-26T09:09:40.350Z,101277
2018-05-26T09:12:08.453Z,101281
2018-05-26T09:14:36.532Z,101273
2018-05-26T09:17:04.623Z,101280
2018-05-26T09:19:33.475Z,101277
2018-05-26T09:22:02.051Z,101277
2018-05-26T09:24:30.152Z,101280
2018-05-26T09:26:58.224Z,101279
2018-05-26T09:29:26.439Z,101271
2018-05-26T09:31:55.436Z,101274
2018-05-26T09:34:23.783Z,101272
2018-05-26T09:36:53.659Z,101264
2018-05-26T09:39:21.752Z,101267
2018-05-26T09:41:50.752Z,101273
2018-05-26T09:44:18.899Z,101275
2018-05-26T09:46:48.704Z,101269
2018-05-26T09:49:16.856Z,101275
2018-05-26T09:51:46.667Z,101283
2018-05-26T09:54:15.985Z,101277
2018-05-26T09:56:44.801Z,101274
2018-05-26T09:59:14.236Z,101282
2018-05-26T10:01:44.244Z,101274
2018-05-26T10:04:13.556Z,101269
2018-05-26T10:06:42.630Z,101262
2018-05-26T10:09:10.975Z,101259
2018-05-26T10:11:39.137Z,101259
2018-05-26T10:14:08.020Z,101262
2018-05-26T10:16:37.141Z,101265
2018-05-26T10:19:05.390Z,101262
2018-05-26T10:21:33.482Z,101259
2018-05-26T10:24:05.571Z,101268
2018-05-26T10:26:34.932Z,101266
2018-05-26T10:29:03.927Z,101264
2018-05-26T10:31:32.312Z,101260
2018-05-26T10:34:00.536Z,101257
2018-05-26T10:36:28.773Z,101251
2018-05-26T10:38:57.076Z,101256
2018-05-26T10:41:25.332Z,101246
2018-05-26T10:43:57.804Z,101253
2018-05-26T10:46:26.584Z,101245
2018-05-26T10:48:54.947Z,101259
2018-05-26T10:51:23.050Z,101251
2018-05-26T10:53:51.307Z,101255
2018-05-26T10:56:19.515Z,101254
2018-05-26T10:58:48.287Z,101247
2018-05-26T11:01:16.386Z,101254
2018-05-26T11:03:45.195Z,101246
2018-05-26T11:06:13.433Z,101248
2018-05-26T11:08:42.215Z,101256
2018-05-26T11:11:10.315Z,101255
2018-05-26T11:13:38.695Z,101262
2018-05-26T11:16:07.651Z,101264
2018-05-26T11:18:35.832Z,101265
2018-05-26T11:21:03.900Z,101255
2018-05-26T11:23:32.734Z,101260
2018-05-26T11:26:01.218Z,101268
2018-05-26T11:28:29.625Z,101260
2018-05-26T11:30:57.748Z,101254
2018-05-26T11:33:25.834Z,101261
2018-05-26T11:35:55.518Z,101256
2018-05-26T11:38:23.788Z,101249
2018-05-26T11:40:52.726Z,101261
2018-05-26T11:43:21.764Z,101251
2018-05-26T11:45:49.887Z,101261
2018-05-26T11:48:19.704Z,101256
2018-05-26T11:50:48.541Z,101252
2018-05-26T11:53:17.608Z,101251
2018-05-26T11:55:46.332Z,101256
2018-05-26T11:58:14.868Z,101263
2018-05-26T12:00:44.389Z,101254
2018-05-26T12:03:13.280Z,101251
2018-05-26T12:05:45.396Z,101248
2018-05-26T12:08:14.589Z,101260
2018-05-26T12:10:43.494Z,101248
2018-05-26T12:13:12.254Z,101245
2018-05-26T12:15:40.374Z,101247
2018-05-26T12:18:09.231Z,101259
2018-05-26T12:20:37.487Z,101253
2018-05-26T12:23:05.569Z,101252
2018-05-26T12:25:34.041Z,101253
2018-05-26T12:28:02.377Z,101258
2018-05-26T12:30:30.511Z,101258
2018-05-26T12:32:58.829Z,101260
2018-05-26T12:35:28.573Z,101252
2018-05-26T12:37:56.662Z,101265
2018-05-26T12:40:24.842Z,101255
2018-05-26T12:42:52.965Z,101252
2018-05-26T12:45:21.117Z,101261
2018-05-26T12:47:49.391Z,101258
2018-05-26T12:50:17.503Z,101266
2018-05-26T12:52:45.600Z,101262
2018-05-26T12:55:13.941Z,101271
2018-05-26T12:57:42.342Z,101254
2018-05-26T13:00:10.410Z,101254
2018-05-26T13:02:38.526Z,101262
2018-05-26T13:05:07.387Z,101257
2018-05-26T13:07:36.196Z,101258
2018-05-26T13:10:04.462Z,101263
2018-05-26T13:12:32.867Z,101260
2018-05-26T13:15:01.063Z,101254
2018-05-26T13:17:29.324Z,101247
2018-05-26T13:19:57.431Z,101244
2018-05-26T13:22:25.513Z,101240
2018-05-26T13:24:53.640Z,101233
2018-05-26T13:27:23.213Z,101237
2018-05-26T13:29:53.391Z,101239
2018-05-26T13:32:21.480Z,101238
2018-05-26T13:34:49.688Z,101236
2018-05-26T13:37:17.748Z,101234
2018-05-26T13:39:46.304Z,101234
2018-05-26T13:42:15.032Z,101231
2018-05-26T13:44:43.131Z,101226
2018-05-26T13:47:12.188Z,101234
2018-05-26T13:49:40.378Z,101231
2018-05-26T13:52:08.717Z,101229
2018-05-26T13:54:36.783Z,101225
2018-05-26T13:57:05.725Z,101230
2018-05-26T13:59:34.484Z,101225
2018-05-26T14:02:03.480Z,101219
2018-05-26T14:04:31.556Z,101223
2018-05-26T14:06:59.860Z,101216
2018-05-26T14:09:27.996Z,101224
2018-05-26T14:11:56.120Z,101222
2018-05-26T14:14:24.981Z,101219
2018-05-26T14:16:54.507Z,101219
2018-05-26T14:19:22.790Z,101218
2018-05-26T14:21:50.886Z,101216
2018-05-26T14:24:19.043Z,101216
2018-05-26T14:26:48.828Z,101202
2018-05-26T14:29:16.960Z,101196
2018-05-26T14:31:45.112Z,101211
2018-05-26T14:34:13.823Z,101201
2018-05-26T14:36:41.914Z,101204
2018-05-26T14:39:11.836Z,101207
2018-05-26T14:41:41.376Z,101205
2018-05-26T14:44:10.259Z,101207
2018-05-26T14:46:38.535Z,101203
2018-05-26T14:49:06.640Z,101198
2018-05-26T14:51:34.741Z,101197
2018-05-26T14:54:03.067Z,101195
2018-05-26T14:56:31.952Z,101196
2018-05-26T14:59:00.053Z,101187
2018-05-26T15:01:28.157Z,101195
2018-05-26T15:03:56.260Z,101195
2018-05-26T15:06:24.408Z,101195
2018-05-26T15:08:52.565Z,101195
2018-05-26T15:11:20.636Z,101190
2018-05-26T15:13:50.069Z,101194
2018-05-26T15:16:18.148Z,101188
2018-05-26T15:18:46.261Z,101190
2018-05-26T15:21:14.348Z,101192
2018-05-26T15:23:42.735Z,101189
2018-05-26T15:26:10.998Z,101185
2018-05-26T15:28:39.437Z,101191
2018-05-26T15:31:07.577Z,101184
2018-05-26T15:33:35.667Z,101190
2018-05-26T15:36:03.760Z,101186
2018-05-26T15:38:31.863Z,101185
2018-05-26T15:41:00.015Z,101185
2018-05-26T15:43:28.856Z,101171
2018-05-26T15:45:57.615Z,101177
2018-05-26T15:48:25.765Z,101174
2018-05-26T15:50:53.840Z,101170
2018-05-26T15:53:22.791Z,101166
2018-05-26T15:55:50.939Z,101164
2018-05-26T15:58:19.054Z,101164
2018-05-26T16:00:47.132Z,101169
2018-05-26T16:03:15.521Z,101175
2018-05-26T16:05:44.907Z,101183
2018-05-26T16:08:13.100Z,101175
2018-05-26T16:10:41.880Z,101179
2018-05-26T16:13:10.028Z,101181
2018-05-26T16:15:38.116Z,101164
2018-05-26T16:18:06.182Z,101171
2018-05-26T16:20:34.473Z,101173
2018-05-26T16:23:02.544Z,101172
2018-05-26T16:25:30.843Z,101172
2018-05-26T16:28:00.176Z,101166
2018-05-26T16:30:29.032Z,101175
2018-05-26T16:32:58.003Z,101170
2018-05-26T16:35:26.214Z,101173
2018-05-26T16:37:54.316Z,101172
2018-05-26T16:40:24.428Z,101173
2018-05-26T16:42:52.602Z,101166
2018-05-26T16:45:21.376Z,101172
2018-05-26T16:47:49.664Z,101174
2018-05-26T16:50:17.784Z,101174
2018-05-26T16:52:46.639Z,101172
2018-05-26T16:55:15.147Z,101173
2018-05-26T16:57:43.524Z,101170
2018-05-26T17:00:11.597Z,101168
2018-05-26T17:02:39.792Z,101173
2018-05-26T17:05:08.725Z,101173
2018-05-26T17:07:36.853Z,101171
2018-05-26T17:10:05.932Z,101172
2018-05-26T17:12:34.285Z,101177
2018-05-26T17:15:03.159Z,101173
2018-05-26T17:17:31.904Z,101175
2018-05-26T17:20:00.969Z,101187
2018-05-26T17:22:29.058Z,101180
2018-05-26T17:24:57.145Z,101178
2018-05-26T17:27:26.261Z,101183
2018-05-26T17:29:55.207Z,101177
2018-05-26T17:32:24.609Z,101179
2018-05-26T17:34:52.751Z,101178
2018-05-26T17:37:21.174Z,101185
2018-05-26T17:39:49.285Z,101180
2018-05-26T17:42:17.658Z,101185
2018-05-26T17:44:45.844Z,101187
2018-05-26T17:47:13.964Z,101173
2018-05-26T17:49:42.055Z,101187
2018-05-26T17:52:10.943Z,101185
2018-05-26T17:54:39.028Z,101184
2018-05-26T17:57:08.206Z,101190
2018-05-26T17:59:36.479Z,101186
2018-05-26T18:02:04.647Z,101192
2018-05-26T18:04:33.403Z,101195
2018-05-26T18:07:02.412Z,101193
2018-05-26T18:09:30.509Z,101195
2018-05-26T18:11:58.776Z,101191
2018-05-26T18:14:26.887Z,101189
2018-05-26T18:16:55.761Z,101190
2018-05-26T18:19:23.857Z,101193
2018-05-26T18:21:51.961Z,101192
2018-05-26T18:24:20.131Z,101195
2018-05-26T18:26:48.249Z,101190
2018-05-26T18:29:18.158Z,101188
2018-05-26T18:31:46.675Z,101189
2018-05-26T18:34:15.035Z,101187
2018-05-26T18:36:44.812Z,101192
2018-05-26T18:39:13.005Z,101195
2018-05-26T18:41:41.329Z,101191
2018-05-26T18:44:09.412Z,101188
2018-05-26T18:46:38.271Z,101189
2018-05-26T18:49:06.368Z,101192
2018-05-26T18:51:34.535Z,101195
2018-05-26T18:54:03.343Z,101192
2018-05-26T18:56:31.472Z,101201
2018-05-26T18:59:00.329Z,101204
2018-05-26T19:01:28.807Z,101205
2018-05-26T19:03:57.836Z,101210
2018-05-26T19:06:26.249Z,101208
2018-05-26T19:08:55.304Z,101212
2018-05-26T19:11:24.245Z,101206
2018-05-26T19:13:52.605Z,101191
2018-05-26T19:16:20.751Z,101213
2018-05-26T19:18:49.239Z,101205
2018-05-26T19:21:18.169Z,101203
2018-05-26T19:23:47.071Z,101211
2018-05-26T19:26:17.293Z,101211
2018-05-26T19:28:45.727Z,101209
2018-05-26T19:31:18.456Z,101212
2018-05-26T19:33:46.533Z,101213
2018-05-26T19:36:14.732Z,101206
2018-05-26T19:38:43.043Z,101204
2018-05-26T19:41:11.113Z,101212
2018-05-26T19:43:39.292Z,101214
2018-05-26T19:46:07.445Z,101211
2018-05-26T19:48:37.356Z,101214
2018-05-26T19:51:09.100Z,101217
2018-05-26T19:53:37.337Z,101221
2018-05-26T19:56:05.702Z,101223
2018-05-26T19:58:33.921Z,101229
2018-05-26T20:01:02.010Z,101229
2018-05-26T20:03:30.239Z,101229
2018-05-26T20:05:58.464Z,101225
2018-05-26T20:08:27.332Z,101237
2018-05-26T20:10:55.409Z,101234
2018-05-26T20:13:23.611Z,101241
2018-05-26T20:15:53.218Z,101236
2018-05-26T20:18:22.401Z,101236
2018-05-26T20:20:51.129Z,101241
2018-05-26T20:23:20.205Z,101244
2018-05-26T20:25:48.456Z,101243
2018-05-26T20:28:16.687Z,101244
2018-05-26T20:30:44.901Z,101246
2018-05-26T20:33:13.928Z,101239
2018-05-26T20:35:42.308Z,101240
2018-05-26T20:38:11.273Z,101243
2018-05-26T20:40:39.418Z,101242
2018-05-26T20:43:07.719Z,101238
2018-05-26T20:45:35.811Z,101242
2018-05-26T20:48:04.936Z,101242
2018-05-26T20:50:33.278Z,101236
2018-05-26T20:53:01.628Z,101248
2018-05-26T20:55:29.900Z,101234
2018-05-26T20:57:58.748Z,101234
2018-05-26T21:00:27.787Z,101227
2018-05-26T21:02:56.548Z,101235
2018-05-26T21:05:24.690Z,101231
2018-05-26T21:07:55.676Z,101227
2018-05-26T21:10:23.818Z,101238
2018-05-26T21:12:52.214Z,101244
2018-05-26T21:15:21.606Z,101238
2018-05-26T21:17:49.955Z,101242
2018-05-26T21:20:18.248Z,101239
2018-05-26T21:22:46.325Z,101244
2018-05-26T21:25:18.608Z,101237
2018-05-26T21:27:46.956Z,101234
2018-05-26T21:30:15.102Z,101218
2018-05-26T21:32:43.655Z,101229
2018-05-26T21:35:11.729Z,101225
2018-05-26T21:37:40.181Z,101224
2018-05-26T21:40:09.973Z,101237
2018-05-26T21:42:38.068Z,101235
2018-05-26T21:45:07.051Z,101233
2018-05-26T21:47:35.160Z,101232
2018-05-26T21:50:05.437Z,101230
2018-05-26T21:52:34.654Z,101228
2018-05-26T21:55:03.061Z,101223
2018-05-26T21:57:31.350Z,101228
2018-05-26T22:00:07.908Z,101235
2018-05-26T22:02:39.468Z,101232
2018-05-26T22:05:10.744Z,101233
2018-05-26T22:07:42.520Z,101227
2018-05-26T22:10:15.408Z,101226
2018-05-26T22:12:44.345Z,101225
2018-05-26T22:15:12.615Z,101228
2018-05-26T22:17:41.904Z,101224
2018-05-26T22:20:17.997Z,101229
2018-05-26T22:22:46.264Z,101216
2018-05-26T22:25:15.420Z,101213
2018-05-26T22:27:44.575Z,101212
2018-05-26T22:30:12.759Z,101210
2018-05-26T22:32:41.619Z,101215
2018-05-26T22:35:09.802Z,101209
2018-05-26T22:37:39.833Z,101220
2018-05-26T22:40:08.600Z,101219
2018-05-26T22:42:36.835Z,101210
2018-05-26T22:45:05.820Z,101213
2018-05-26T22:47:33.941Z,101198
2018-05-26T22:50:02.284Z,101209
2018-05-26T22:52:31.135Z,101202
2018-05-26T22:55:00.003Z,101197
2018-05-26T22:57:28.375Z,101205
2018-05-26T22:59:56.520Z,101203
2018-05-26T23:02:25.495Z,101205
2018-05-26T23:04:54.043Z,101208
2018-05-26T23:07:22.309Z,101209
2018-05-26T23:09:51.265Z,101208
2018-05-26T23:12:20.137Z,101201
2018-05-26T23:14:49.889Z,101210
2018-05-26T23:17:18.210Z,101211
2018-05-26T23:19:46.525Z,101221
2018-05-26T23:22:17.796Z,101219
2018-05-26T23:24:46.767Z,101213
2018-05-26T23:27:14.958Z,101199
2018-05-26T23:29:43.441Z,101209
2018-05-26T23:32:11.637Z,101193
2018-05-26T23:34:40.566Z,101190
2018-05-26T23:37:09.708Z,101199
2018-05-26T23:39:37.905Z,101180
2018-05-26T23:42:05.981Z,101181
2018-05-26T23:44:35.190Z,101175
2018-05-26T23:47:03.934Z,101171
2018-05-26T23:49:32.280Z,101174
2018-05-26T23:52:01.040Z,101168
2018-05-26T23:54:30.156Z,101176
2018-05-26T23:56:59.676Z,101171
2018-05-26T23:59:27.762Z,101175
